Time;durP1;ratioP1;P1;durP2;ratioP2;P2;SDS_P1;SDS_P2;PMS_P1;PMS_P2;Temp;Humidity;BMP_temperature;BMP_pressure;BME280_temperature;BME280_humidity;BME280_pressure;Samples;Min_cycle;Max_cycle;Signal;HPM_P1;HPM_P2
2023/09/09 00:01:09;;;;;;;6.32;5.82;;;;;;;;;;4951830;28;20210;-61
2023/09/09 00:03:37;;;;;;;6.07;5.57;;;;;;;;;;4948299;28;20214;-61
2023/09/09 00:06:09;;;;;;;7.18;5.20;;;;;;;;;;4949127;29;20227;-61
2023/09/09 00:08:36;;;;;;;5.78;5.20;;;;;;;;;;4949612;28;20217;-61
2023/09/09 00:11:03;;;;;;;6.30;5.68;;;;;;;;;;4952527;28;20238;-61
2023/09/09 00:13:30;;;;;;;7.03;5.82;;;;;;;;;;4943957;29;20254;-61
2023/09/09 00:15:57;;;;;;;6.43;5.82;;;;;;;;;;4944612;29;20561;-61
2023/09/09 00:18:24;;;;;;;6.05;5.47;;;;;;;;;;4954037;28;20301;-60
2023/09/09 00:20:53;;;;;;;6.32;5.72;;;;;;;;;;4955730;28;20215;-60
2023/09/09 00:23:20;;;;;;;6.07;5.63;;;;;;;;;;4958809;28;20238;-61
2023/09/09 00:25:47;;;;;;;8.52;5.82;;;;;;;;;;4961428;28;20226;-61
2023/09/09 00:28:14;;;;;;;7.65;6.07;;;;;;;;;;4949593;28;20206;-61
2023/09/09 00:30:42;;;;;;;9.48;5.32;;;;;;;;;;4948051;28;20589;-62
2023/09/09 00:33:09;;;;;;;6.20;5.65;;;;;;;;;;4948376;29;20213;-62
2023/09/09 00:35:38;;;;;;;7.80;5.78;;;;;;;;;;4947851;28;20699;-61
2023/09/09 00:38:07;;;;;;;9.85;5.85;;;;;;;;;;4948293;28;20231;-61
2023/09/09 00:40:34;;;;;;;6.82;5.45;;;;;;;;;;4940733;28;20325;-62
2023/09/09 00:43:01;;;;;;;6.28;5.68;;;;;;;;;;4924100;29;20313;-61
2023/09/09 00:45:28;;;;;;;5.95;5.45;;;;;;;;;;4933941;29;20226;-62
2023/09/09 00:47:55;;;;;;;11.18;6.25;;;;;;;;;;4947764;28;20748;-61
2023/09/09 00:50:23;;;;;;;6.75;5.88;;;;;;;;;;4951581;28;20231;-62
2023/09/09 00:52:50;;;;;;;7.88;6.22;;;;;;;;;;4948248;28;20215;-61
2023/09/09 00:55:19;;;;;;;6.53;5.93;;;;;;;;;;4949867;28;20569;-61
2023/09/09 00:57:46;;;;;;;6.80;5.95;;;;;;;;;;4952914;28;20222;-61
2023/09/09 01:00:13;;;;;;;6.38;5.88;;;;;;;;;;4945706;29;20211;-61
2023/09/09 01:02:41;;;;;;;6.28;5.75;;;;;;;;;;4950145;28;20214;-61
2023/09/09 01:05:09;;;;;;;7.28;5.53;;;;;;;;;;4959083;28;21222;-61
2023/09/09 01:07:43;;;;;;;6.53;5.88;;;;;;;;;;4946404;28;20233;-61
2023/09/09 01:10:10;;;;;;;7.35;5.85;;;;;;;;;;4944782;28;20246;-61
2023/09/09 01:12:38;;;;;;;6.25;5.70;;;;;;;;;;4956839;28;20386;-61
2023/09/09 01:15:06;;;;;;;6.28;5.80;;;;;;;;;;4942567;28;20302;-61
2023/09/09 01:17:35;;;;;;;5.70;5.30;;;;;;;;;;4942565;29;20214;-60
2023/09/09 01:20:06;;;;;;;5.53;5.07;;;;;;;;;;4947530;29;20222;-60
2023/09/09 01:22:35;;;;;;;7.47;5.40;;;;;;;;;;4949518;28;20595;-60
2023/09/09 01:25:03;;;;;;;5.60;5.13;;;;;;;;;;4948022;28;20251;-63
2023/09/09 01:27:31;;;;;;;7.03;5.50;;;;;;;;;;4945798;28;20225;-63
2023/09/09 01:29:58;;;;;;;6.05;5.65;;;;;;;;;;4949783;28;20210;-63
2023/09/09 01:32:25;;;;;;;6.40;5.85;;;;;;;;;;4945772;29;20207;-63
2023/09/09 01:34:52;;;;;;;6.15;5.55;;;;;;;;;;4947196;28;20222;-62
2023/09/09 01:37:19;;;;;;;6.07;5.53;;;;;;;;;;4961881;28;20234;-61
2023/09/09 01:39:48;;;;;;;7.40;6.10;;;;;;;;;;4948395;28;20329;-61
2023/09/09 01:42:15;;;;;;;5.88;5.30;;;;;;;;;;4941871;28;20211;-60
2023/09/09 01:44:44;;;;;;;5.82;4.95;;;;;;;;;;4953821;28;20317;-60
2023/09/09 01:47:13;;;;;;;9.35;5.75;;;;;;;;;;4952482;28;20218;-60
2023/09/09 01:49:40;;;;;;;6.60;5.30;;;;;;;;;;4958962;28;20298;-60
2023/09/09 01:52:09;;;;;;;6.53;5.55;;;;;;;;;;4945815;29;20765;-60
2023/09/09 01:54:36;;;;;;;6.25;5.65;;;;;;;;;;4948351;28;20208;-61
2023/09/09 01:57:04;;;;;;;5.95;5.50;;;;;;;;;;4948380;28;20219;-60
2023/09/09 01:59:31;;;;;;;6.50;6.00;;;;;;;;;;4946016;29;20216;-61
2023/09/09 02:01:58;;;;;;;6.88;5.95;;;;;;;;;;4946967;28;20219;-61
2023/09/09 02:04:25;;;;;;;6.43;5.93;;;;;;;;;;4945269;28;20215;-61
2023/09/09 02:06:52;;;;;;;7.35;6.25;;;;;;;;;;4956712;28;20221;-61
2023/09/09 02:09:19;;;;;;;6.57;6.00;;;;;;;;;;4951780;28;20262;-61
2023/09/09 02:11:46;;;;;;;6.22;5.72;;;;;;;;;;4947065;29;20211;-61
2023/09/09 02:14:15;;;;;;;5.93;5.32;;;;;;;;;;4947155;28;20216;-60
2023/09/09 02:16:42;;;;;;;6.13;5.47;;;;;;;;;;4960388;28;20205;-60
2023/09/09 02:19:09;;;;;;;6.00;5.50;;;;;;;;;;4959167;28;20254;-60
2023/09/09 02:21:36;;;;;;;6.63;6.00;;;;;;;;;;4941519;29;20211;-61
2023/09/09 02:24:03;;;;;;;9.13;6.00;;;;;;;;;;4943941;29;20230;-60
2023/09/09 02:26:30;;;;;;;5.90;5.40;;;;;;;;;;4945181;28;20335;-61
2023/09/09 02:28:57;;;;;;;6.55;5.90;;;;;;;;;;4942553;28;20214;-61
2023/09/09 02:31:26;;;;;;;6.38;5.78;;;;;;;;;;4941384;28;20207;-61
2023/09/09 02:33:53;;;;;;;6.60;5.47;;;;;;;;;;4947677;28;20210;-61
2023/09/09 02:36:20;;;;;;;6.30;5.80;;;;;;;;;;4962625;28;20203;-60
2023/09/09 02:38:47;;;;;;;6.18;5.70;;;;;;;;;;4964512;28;20713;-60
2023/09/09 02:41:14;;;;;;;7.60;5.53;;;;;;;;;;4950656;29;20234;-61
2023/09/09 02:43:41;;;;;;;6.13;5.68;;;;;;;;;;4950397;29;20211;-61
2023/09/09 02:46:08;;;;;;;6.78;5.65;;;;;;;;;;4960908;28;20226;-61
2023/09/09 02:48:36;;;;;;;6.32;5.82;;;;;;;;;;4959951;28;20210;-60
2023/09/09 02:51:03;;;;;;;6.03;5.47;;;;;;;;;;4957620;28;20214;-60
2023/09/09 02:53:31;;;;;;;7.70;5.60;;;;;;;;;;4949594;28;20223;-60
2023/09/09 02:55:58;;;;;;;6.45;5.05;;;;;;;;;;4947195;28;20789;-60
2023/09/09 02:58:25;;;;;;;5.95;5.50;;;;;;;;;;4944761;28;20215;-60
2023/09/09 03:00:52;;;;;;;8.60;5.97;;;;;;;;;;4945856;28;20909;-60
2023/09/09 03:03:20;;;;;;;6.35;5.75;;;;;;;;;;4950805;28;20202;-60
2023/09/09 03:05:48;;;;;;;6.38;5.78;;;;;;;;;;4955002;28;20222;-60
2023/09/09 03:08:15;;;;;;;5.97;5.53;;;;;;;;;;4948714;29;20211;-60
2023/09/09 03:10:42;;;;;;;6.03;5.53;;;;;;;;;;4950365;28;20692;-60
2023/09/09 03:13:09;;;;;;;6.57;5.82;;;;;;;;;;4948638;29;20211;-60
2023/09/09 03:15:36;;;;;;;5.93;5.03;;;;;;;;;;4951052;28;20199;-61
2023/09/09 03:18:04;;;;;;;7.40;5.57;;;;;;;;;;4960773;28;20233;-60
2023/09/09 03:20:31;;;;;;;6.40;5.72;;;;;;;;;;4952239;28;20739;-60
2023/09/09 03:22:59;;;;;;;6.00;5.40;;;;;;;;;;4948372;29;20210;-60
2023/09/09 03:25:26;;;;;;;8.63;5.63;;;;;;;;;;4948080;28;20242;-61
2023/09/09 03:27:53;;;;;;;5.75;5.25;;;;;;;;;;4952292;28;20215;-60
2023/09/09 03:30:22;;;;;;;5.20;4.70;;;;;;;;;;4940892;29;20608;-60
2023/09/09 03:32:49;;;;;;;9.32;5.53;;;;;;;;;;4944405;29;20219;-60
2023/09/09 03:35:16;;;;;;;6.57;5.00;;;;;;;;;;4945771;28;20211;-60
2023/09/09 03:37:43;;;;;;;5.97;5.55;;;;;;;;;;4945453;28;20737;-60
2023/09/09 03:40:12;;;;;;;5.43;5.10;;;;;;;;;;4953851;28;20747;-60
2023/09/09 03:42:40;;;;;;;5.35;4.95;;;;;;;;;;4949747;28;20215;-60
2023/09/09 03:45:07;;;;;;;7.53;5.68;;;;;;;;;;4948150;28;20570;-63
2023/09/09 03:47:34;;;;;;;5.85;5.35;;;;;;;;;;4948771;28;20204;-60
2023/09/09 03:50:01;;;;;;;5.85;5.35;;;;;;;;;;4944379;29;20326;-60
2023/09/09 03:52:29;;;;;;;5.80;5.40;;;;;;;;;;4949202;28;20242;-60
2023/09/09 03:54:56;;;;;;;5.78;5.28;;;;;;;;;;4949566;29;20207;-60
2023/09/09 03:57:25;;;;;;;5.82;5.32;;;;;;;;;;4947973;28;20210;-60
2023/09/09 03:59:53;;;;;;;8.23;6.03;;;;;;;;;;4949747;29;20943;-60
2023/09/09 04:02:20;;;;;;;6.03;5.53;;;;;;;;;;4943760;29;20210;-60
2023/09/09 04:04:47;;;;;;;6.45;5.85;;;;;;;;;;4945836;28;20692;-61
2023/09/09 04:07:14;;;;;;;5.90;5.32;;;;;;;;;;4948539;28;20234;-60
2023/09/09 04:09:41;;;;;;;7.57;5.35;;;;;;;;;;4947571;29;20552;-60
2023/09/09 04:12:09;;;;;;;8.70;5.13;;;;;;;;;;4947399;29;20207;-60
2023/09/09 04:14:39;;;;;;;5.72;5.22;;;;;;;;;;4946590;28;20235;-60
2023/09/09 04:17:06;;;;;;;5.80;5.35;;;;;;;;;;4940056;28;21216;-60
2023/09/09 04:19:33;;;;;;;6.68;5.22;;;;;;;;;;4947350;29;20666;-60
2023/09/09 04:22:00;;;;;;;5.60;5.20;;;;;;;;;;4947516;29;20669;-60
2023/09/09 04:24:27;;;;;;;5.38;4.97;;;;;;;;;;4947522;29;20218;-60
2023/09/09 04:26:54;;;;;;;6.50;5.20;;;;;;;;;;4949110;28;20227;-60
2023/09/09 04:29:21;;;;;;;6.07;5.47;;;;;;;;;;4946637;28;20214;-60
2023/09/09 04:31:50;;;;;;;5.57;5.07;;;;;;;;;;4949237;29;20222;-62
2023/09/09 04:34:17;;;;;;;6.13;5.63;;;;;;;;;;4950063;28;20210;-60
2023/09/09 04:36:45;;;;;;;5.45;4.95;;;;;;;;;;4947415;28;20210;-61
2023/09/09 04:39:14;;;;;;;7.55;5.43;;;;;;;;;;4945330;29;20230;-60
2023/09/09 04:41:41;;;;;;;5.95;5.05;;;;;;;;;;4941603;29;20243;-63
2023/09/09 04:44:08;;;;;;;6.00;5.40;;;;;;;;;;4943065;29;20847;-60
2023/09/09 04:46:35;;;;;;;6.85;5.32;;;;;;;;;;4951785;28;20248;-63
2023/09/09 04:49:03;;;;;;;5.78;5.28;;;;;;;;;;4953403;28;20203;-60
2023/09/09 04:51:31;;;;;;;6.80;5.47;;;;;;;;;;4943872;29;20321;-61
2023/09/09 04:53:58;;;;;;;5.72;5.07;;;;;;;;;;4944923;28;20203;-60
2023/09/09 04:56:25;;;;;;;6.22;5.68;;;;;;;;;;4941566;28;20211;-61
2023/09/09 04:58:52;;;;;;;5.88;5.47;;;;;;;;;;4948383;28;20672;-61
2023/09/09 05:01:19;;;;;;;5.63;5.22;;;;;;;;;;4946575;29;20222;-60
2023/09/09 05:03:46;;;;;;;6.35;4.97;;;;;;;;;;4948890;29;20219;-62
2023/09/09 05:06:14;;;;;;;6.95;4.60;;;;;;;;;;4955500;28;20222;-61
2023/09/09 05:08:41;;;;;;;5.38;4.90;;;;;;;;;;4948329;28;20230;-61
2023/09/09 05:11:09;;;;;;;9.77;5.30;;;;;;;;;;4948445;28;20210;-61
2023/09/09 05:13:36;;;;;;;5.47;5.07;;;;;;;;;;4946644;29;20234;-61
2023/09/09 05:16:03;;;;;;;6.05;5.55;;;;;;;;;;4953589;28;20676;-61
2023/09/09 05:18:30;;;;;;;5.25;4.90;;;;;;;;;;4957784;28;20732;-60
2023/09/09 05:20:57;;;;;;;5.43;4.90;;;;;;;;;;4967578;28;20218;-61
2023/09/09 05:23:25;;;;;;;6.75;5.47;;;;;;;;;;4947760;28;20215;-61
2023/09/09 05:25:52;;;;;;;5.28;4.90;;;;;;;;;;4954152;28;20238;-61
2023/09/09 05:28:19;;;;;;;5.78;5.22;;;;;;;;;;4943861;28;20207;-60
2023/09/09 05:30:46;;;;;;;6.13;5.63;;;;;;;;;;4946600;28;20208;-61
2023/09/09 05:33:13;;;;;;;5.88;5.32;;;;;;;;;;4942231;28;20215;-61
2023/09/09 05:35:40;;;;;;;5.70;5.13;;;;;;;;;;4947574;28;20207;-61
2023/09/09 05:38:07;;;;;;;5.60;5.07;;;;;;;;;;4942104;28;20250;-61
2023/09/09 05:40:36;;;;;;;5.13;4.63;;;;;;;;;;4951300;28;20721;-62
2023/09/09 05:43:03;;;;;;;6.10;5.60;;;;;;;;;;4947850;29;20273;-61
2023/09/09 05:45:30;;;;;;;6.07;5.53;;;;;;;;;;4946299;29;20222;-62
2023/09/09 05:47:57;;;;;;;5.90;5.40;;;;;;;;;;4948416;28;20234;-62
2023/09/09 05:50:24;;;;;;;5.35;5.03;;;;;;;;;;4955834;28;20562;-62
2023/09/09 05:52:51;;;;;;;6.20;5.70;;;;;;;;;;4959184;28;20217;-62
2023/09/09 05:55:18;;;;;;;6.45;5.78;;;;;;;;;;4953044;28;20214;-62
2023/09/09 05:57:46;;;;;;;7.38;5.93;;;;;;;;;;4948022;29;20215;-61
2023/09/09 06:00:14;;;;;;;6.13;5.53;;;;;;;;;;4953945;28;20207;-61
2023/09/09 06:02:41;;;;;;;7.38;5.72;;;;;;;;;;4959607;28;20220;-61
2023/09/09 06:05:08;;;;;;;6.55;5.68;;;;;;;;;;4945339;28;20241;-62
2023/09/09 06:07:35;;;;;;;5.90;5.43;;;;;;;;;;4943792;28;20235;-61
2023/09/09 06:10:03;;;;;;;5.97;5.47;;;;;;;;;;4941808;28;20215;-62
2023/09/09 06:12:30;;;;;;;6.47;5.97;;;;;;;;;;4960113;28;20724;-62
2023/09/09 06:14:58;;;;;;;6.03;5.53;;;;;;;;;;4951958;28;20211;-62
2023/09/09 06:17:25;;;;;;;6.38;5.78;;;;;;;;;;4951834;28;20194;-62
2023/09/09 06:19:52;;;;;;;6.35;5.70;;;;;;;;;;4955492;28;20741;-62
2023/09/09 06:22:19;;;;;;;6.45;5.80;;;;;;;;;;4946000;29;20218;-62
2023/09/09 06:24:46;;;;;;;7.10;6.15;;;;;;;;;;4952932;28;20214;-62
2023/09/09 06:27:13;;;;;;;7.38;6.38;;;;;;;;;;4966846;28;20241;-62
2023/09/09 06:29:40;;;;;;;6.80;6.18;;;;;;;;;;4963284;28;20206;-62
2023/09/09 06:32:09;;;;;;;11.20;6.38;;;;;;;;;;4966999;28;20613;-62
2023/09/09 06:34:37;;;;;;;6.72;6.13;;;;;;;;;;4951634;28;20670;-62
2023/09/09 06:37:04;;;;;;;7.60;6.40;;;;;;;;;;4944096;29;20214;-62
2023/09/09 06:39:31;;;;;;;7.18;6.47;;;;;;;;;;4942998;28;20234;-62
2023/09/09 06:41:58;;;;;;;6.07;5.63;;;;;;;;;;4942086;29;20215;-61
2023/09/09 06:44:25;;;;;;;6.78;6.18;;;;;;;;;;4943683;28;20211;-61
2023/09/09 06:46:52;;;;;;;8.05;7.25;;;;;;;;;;4947500;29;20242;-61
2023/09/09 06:49:20;;;;;;;8.30;7.45;;;;;;;;;;4947197;28;20215;-61
2023/09/09 06:51:48;;;;;;;8.73;7.32;;;;;;;;;;4957903;28;20211;-61
2023/09/09 06:54:15;;;;;;;10.38;7.68;;;;;;;;;;4958245;28;20270;-61
2023/09/09 06:56:42;;;;;;;8.18;7.38;;;;;;;;;;4947250;29;20237;-61
2023/09/09 06:59:09;;;;;;;8.80;6.47;;;;;;;;;;4949392;28;20202;-61
2023/09/09 07:01:36;;;;;;;7.63;7.00;;;;;;;;;;4945405;28;20637;-61
2023/09/09 07:04:03;;;;;;;8.02;7.32;;;;;;;;;;4947096;29;20677;-61
2023/09/09 07:06:31;;;;;;;7.45;6.72;;;;;;;;;;4945522;29;20259;-61
2023/09/09 07:08:58;;;;;;;7.72;7.03;;;;;;;;;;4947479;28;20202;-61
2023/09/09 07:11:26;;;;;;;7.55;5.85;;;;;;;;;;4947601;28;20215;-62
2023/09/09 07:13:53;;;;;;;7.20;6.50;;;;;;;;;;4943677;29;20207;-62
2023/09/09 07:16:20;;;;;;;6.55;5.95;;;;;;;;;;4945102;28;20203;-63
2023/09/09 07:18:47;;;;;;;7.18;6.47;;;;;;;;;;4950872;28;20213;-62
2023/09/09 07:21:14;;;;;;;6.80;6.22;;;;;;;;;;4965677;28;20240;-60
2023/09/09 07:23:42;;;;;;;9.15;7.38;;;;;;;;;;4960767;28;20215;-63
2023/09/09 07:26:09;;;;;;;6.35;5.75;;;;;;;;;;4950391;28;20321;-63
2023/09/09 07:28:36;;;;;;;6.68;6.05;;;;;;;;;;4969624;28;20217;-63
2023/09/09 07:31:03;;;;;;;6.97;6.32;;;;;;;;;;4967935;28;20289;-63
2023/09/09 07:33:30;;;;;;;7.88;6.13;;;;;;;;;;4949355;28;20967;-64
2023/09/09 07:35:57;;;;;;;6.40;5.80;;;;;;;;;;4950414;29;20250;-67
2023/09/09 07:38:24;;;;;;;7.95;5.75;;;;;;;;;;4947709;28;20223;-67
2023/09/09 07:40:57;;;;;;;5.60;5.20;;;;;;;;;;4950493;28;20321;-66
2023/09/09 07:43:24;;;;;;;7.43;5.78;;;;;;;;;;4964148;28;20242;-66
2023/09/09 07:45:51;;;;;;;5.97;5.47;;;;;;;;;;4960736;28;20211;-67
2023/09/09 07:48:18;;;;;;;7.90;6.05;;;;;;;;;;4963384;28;20229;-66
2023/09/09 07:50:51;;;;;;;7.85;5.55;;;;;;;;;;4966248;28;20215;-66
2023/09/09 07:53:18;;;;;;;6.25;5.63;;;;;;;;;;4954338;28;20304;-66
2023/09/09 07:55:45;;;;;;;8.43;5.07;;;;;;;;;;4966749;28;20214;-66
2023/09/09 07:58:14;;;;;;;5.55;5.15;;;;;;;;;;4954145;28;20211;-66
2023/09/09 08:00:41;;;;;;;5.88;5.10;;;;;;;;;;4960101;28;20211;-66
2023/09/09 08:03:10;;;;;;;5.63;5.22;;;;;;;;;;4962960;28;20265;-67
2023/09/09 08:05:37;;;;;;;5.45;4.97;;;;;;;;;;4964864;28;20234;-67
2023/09/09 08:08:04;;;;;;;5.88;5.28;;;;;;;;;;4968332;28;20233;-67
2023/09/09 08:10:31;;;;;;;7.72;5.47;;;;;;;;;;4967327;28;20767;-67
2023/09/09 08:12:58;;;;;;;5.97;5.35;;;;;;;;;;4956196;28;20221;-69
2023/09/09 08:15:27;;;;;;;5.93;4.95;;;;;;;;;;4961512;28;20215;-66
2023/09/09 08:17:54;;;;;;;8.75;5.55;;;;;;;;;;4963675;28;20211;-67
2023/09/09 08:20:21;;;;;;;5.57;5.18;;;;;;;;;;4951307;28;20218;-67
2023/09/09 08:22:49;;;;;;;8.02;5.40;;;;;;;;;;4949427;29;20215;-70
2023/09/09 08:25:16;;;;;;;6.22;5.63;;;;;;;;;;4948891;28;20249;-70
2023/09/09 08:27:43;;;;;;;5.90;5.32;;;;;;;;;;4956660;28;20233;-70
2023/09/09 08:30:10;;;;;;;5.78;5.28;;;;;;;;;;4960387;28;20207;-70
2023/09/09 08:32:39;;;;;;;5.80;5.40;;;;;;;;;;4953220;28;20217;-70
2023/09/09 08:35:06;;;;;;;5.70;5.20;;;;;;;;;;4967991;28;20210;-70
2023/09/09 08:37:33;;;;;;;7.22;5.90;;;;;;;;;;4966450;28;20234;-70
2023/09/09 08:40:00;;;;;;;5.75;5.25;;;;;;;;;;4957891;28;20246;-70
2023/09/09 08:42:32;;;;;;;5.95;5.45;;;;;;;;;;4945416;28;20210;-70
2023/09/09 08:45:09;;;;;;;7.35;5.45;;;;;;;;;;4943528;29;20207;-70
2023/09/09 08:47:37;;;;;;;5.70;5.30;;;;;;;;;;4947335;28;20880;-71
2023/09/09 08:50:06;;;;;;;5.47;5.05;;;;;;;;;;4959560;28;20217;-71
2023/09/09 08:52:33;;;;;;;5.68;5.18;;;;;;;;;;4957299;28;20206;-71
2023/09/09 08:55:00;;;;;;;5.30;4.90;;;;;;;;;;4954069;28;20569;-71
2023/09/09 08:57:28;;;;;;;6.30;5.68;;;;;;;;;;4958431;28;20294;-71
2023/09/09 08:59:56;;;;;;;6.43;5.82;;;;;;;;;;4952555;28;20214;-71
2023/09/09 09:02:23;;;;;;;6.88;6.18;;;;;;;;;;4950246;28;20211;-71
2023/09/09 09:04:52;;;;;;;5.78;5.28;;;;;;;;;;4950194;29;20285;-71
2023/09/09 09:07:20;;;;;;;7.07;5.35;;;;;;;;;;4952398;28;20310;-71
2023/09/09 09:09:48;;;;;;;5.65;5.20;;;;;;;;;;4951935;28;20215;-72
2023/09/09 09:12:15;;;;;;;5.82;5.38;;;;;;;;;;4947465;28;20210;-71
2023/09/09 09:14:46;;;;;;;6.18;5.40;;;;;;;;;;4952889;28;20219;-72
2023/09/09 09:17:16;;;;;;;5.65;5.10;;;;;;;;;;4949092;28;20245;-71
2023/09/09 09:19:43;;;;;;;5.82;5.43;;;;;;;;;;4961046;28;20207;-72
2023/09/09 09:22:12;;;;;;;5.78;5.28;;;;;;;;;;4937469;29;20212;-73
2023/09/09 09:24:43;;;;;;;5.90;5.30;;;;;;;;;;4940145;29;20250;-72
2023/09/09 09:27:11;;;;;;;5.53;5.03;;;;;;;;;;4951428;29;20728;-72
2023/09/09 09:29:41;;;;;;;7.88;5.78;;;;;;;;;;4951637;29;20926;-73
2023/09/09 09:32:10;;;;;;;5.93;5.60;;;;;;;;;;4961784;28;20335;-72
2023/09/09 09:34:37;;;;;;;8.13;5.57;;;;;;;;;;4961780;28;20211;-73
2023/09/09 09:37:05;;;;;;;5.35;5.05;;;;;;;;;;4951548;29;20203;-73
2023/09/09 09:39:35;;;;;;;5.40;5.05;;;;;;;;;;4951405;28;20756;-72
2023/09/09 09:42:03;;;;;;;6.18;5.68;;;;;;;;;;4957652;28;20715;-72
2023/09/09 09:44:33;;;;;;;5.72;5.28;;;;;;;;;;4970613;28;20218;-73
2023/09/09 09:47:01;;;;;;;6.18;5.75;;;;;;;;;;4956303;28;20203;-72
2023/09/09 09:49:38;;;;;;;5.47;5.13;;;;;;;;;;4951521;28;20230;-74
2023/09/09 09:52:05;;;;;;;6.10;5.50;;;;;;;;;;4953014;28;20673;-72
2023/09/09 09:54:35;;;;;;;5.68;5.20;;;;;;;;;;4971070;28;20214;-67
2023/09/09 09:57:05;;;;;;;5.20;5.00;;;;;;;;;;4971019;28;20222;-71
2023/09/09 09:59:32;;;;;;;6.03;5.45;;;;;;;;;;4970641;28;20207;-73
2023/09/09 10:02:00;;;;;;;6.13;5.72;;;;;;;;;;4957854;28;20203;-73
2023/09/09 10:04:28;;;;;;;5.97;5.57;;;;;;;;;;4951580;29;20658;-73
2023/09/09 10:06:57;;;;;;;5.55;5.25;;;;;;;;;;4959956;28;20230;-71
2023/09/09 10:09:29;;;;;;;5.75;5.20;;;;;;;;;;4954115;28;20231;-71
2023/09/09 10:12:03;;;;;;;6.22;5.82;;;;;;;;;;4932838;28;20230;-73
2023/09/09 10:14:32;;;;;;;6.28;5.70;;;;;;;;;;4939768;28;20645;-72
2023/09/09 10:17:00;;;;;;;5.90;5.40;;;;;;;;;;4951566;28;20207;-72
2023/09/09 10:19:29;;;;;;;5.20;4.93;;;;;;;;;;4950402;28;20269;-73
2023/09/09 10:21:56;;;;;;;6.93;6.15;;;;;;;;;;4954576;28;20206;-72
2023/09/09 10:24:23;;;;;;;6.80;6.20;;;;;;;;;;4951593;28;20317;-71
2023/09/09 10:26:51;;;;;;;6.70;6.05;;;;;;;;;;4953472;28;20219;-73
2023/09/09 10:29:18;;;;;;;5.90;5.50;;;;;;;;;;4961766;28;20227;-63
2023/09/09 10:31:47;;;;;;;5.75;5.20;;;;;;;;;;4950681;28;20218;-62
2023/09/09 10:34:16;;;;;;;6.20;5.65;;;;;;;;;;4951192;29;20221;-61
2023/09/09 10:36:43;;;;;;;7.00;5.65;;;;;;;;;;4951298;29;20211;-61
2023/09/09 10:39:11;;;;;;;6.70;6.20;;;;;;;;;;4949579;28;20246;-64
2023/09/09 10:41:38;;;;;;;5.85;5.32;;;;;;;;;;4950254;29;20239;-65
2023/09/09 10:44:05;;;;;;;6.35;5.85;;;;;;;;;;4955612;28;20684;-62
2023/09/09 10:46:33;;;;;;;6.30;5.80;;;;;;;;;;4966553;28;20203;-64
2023/09/09 10:49:03;;;;;;;7.07;6.40;;;;;;;;;;4954459;28;20222;-64
2023/09/09 10:51:30;;;;;;;6.63;6.10;;;;;;;;;;4951067;29;20238;-63
2023/09/09 10:54:08;;;;;;;6.43;5.93;;;;;;;;;;4951041;28;20215;-64
2023/09/09 10:56:35;;;;;;;6.32;5.82;;;;;;;;;;4954600;28;20238;-63
2023/09/09 10:59:16;;;;;;;7.95;5.55;;;;;;;;;;4954562;29;20285;-64
2023/09/09 11:01:43;;;;;;;5.80;5.25;;;;;;;;;;4955398;28;20231;-64
2023/09/09 11:04:20;;;;;;;5.55;5.25;;;;;;;;;;4954557;28;20673;-63
2023/09/09 11:06:59;;;;;;;6.72;5.75;;;;;;;;;;4953861;28;20586;-63
2023/09/09 11:09:29;;;;;;;6.18;5.78;;;;;;;;;;4954413;28;20317;-64
2023/09/09 11:11:57;;;;;;;6.15;5.70;;;;;;;;;;4953518;28;20211;-63
2023/09/09 11:14:29;;;;;;;6.32;5.82;;;;;;;;;;4953458;28;20207;-64
2023/09/09 11:16:56;;;;;;;6.03;5.63;;;;;;;;;;4956976;28;20245;-64
2023/09/09 11:19:26;;;;;;;5.18;4.95;;;;;;;;;;4953471;28;20199;-63
2023/09/09 11:21:53;;;;;;;5.25;4.95;;;;;;;;;;4935173;29;20226;-63
2023/09/09 11:24:20;;;;;;;6.15;5.65;;;;;;;;;;4936724;28;20584;-63
2023/09/09 11:26:49;;;;;;;5.32;5.03;;;;;;;;;;4954437;29;20214;-63
2023/09/09 11:29:18;;;;;;;5.32;5.03;;;;;;;;;;4954084;29;20230;-63
2023/09/09 11:31:45;;;;;;;5.10;4.80;;;;;;;;;;4955952;28;20678;-63
2023/09/09 11:34:13;;;;;;;5.50;5.10;;;;;;;;;;4972088;28;20210;-63
2023/09/09 11:36:41;;;;;;;10.68;5.50;;;;;;;;;;4972341;28;20711;-63
2023/09/09 11:39:09;;;;;;;5.25;4.93;;;;;;;;;;4952764;29;20234;-63
2023/09/09 11:41:38;;;;;;;5.25;4.95;;;;;;;;;;4954299;28;20246;-63
2023/09/09 11:44:06;;;;;;;5.95;5.47;;;;;;;;;;4953815;29;20638;-63
2023/09/09 11:46:34;;;;;;;5.82;5.43;;;;;;;;;;4953966;28;20212;-63
2023/09/09 11:49:01;;;;;;;5.32;4.88;;;;;;;;;;4953879;29;20720;-63
2023/09/09 11:51:28;;;;;;;7.90;5.60;;;;;;;;;;4954826;28;20207;-63
2023/09/09 11:53:56;;;;;;;6.03;5.53;;;;;;;;;;4953712;29;20214;-64
2023/09/09 11:56:23;;;;;;;6.13;5.25;;;;;;;;;;4953548;28;20203;-63
2023/09/09 11:58:56;;;;;;;5.30;5.07;;;;;;;;;;4956917;28;20674;-64
2023/09/09 12:01:23;;;;;;;5.75;5.10;;;;;;;;;;4945010;28;20233;-62
2023/09/09 12:03:51;;;;;;;5.90;5.50;;;;;;;;;;4953430;29;20218;-63
2023/09/09 12:06:19;;;;;;;5.28;4.97;;;;;;;;;;4952879;28;20314;-62
2023/09/09 12:08:46;;;;;;;5.00;4.80;;;;;;;;;;4951726;29;20691;-62
2023/09/09 12:11:16;;;;;;;5.18;4.88;;;;;;;;;;4954344;28;20207;-63
2023/09/09 12:13:44;;;;;;;5.60;5.20;;;;;;;;;;4958497;28;20211;-63
2023/09/09 12:16:12;;;;;;;5.95;5.38;;;;;;;;;;4972533;28;20684;-62
2023/09/09 12:18:39;;;;;;;5.05;4.80;;;;;;;;;;4966731;28;20288;-66
2023/09/09 12:21:07;;;;;;;5.10;4.70;;;;;;;;;;4959254;28;21071;-63
2023/09/09 12:23:35;;;;;;;5.35;5.05;;;;;;;;;;4960681;28;20732;-64
2023/09/09 12:26:10;;;;;;;5.53;5.22;;;;;;;;;;4952766;28;20211;-62
2023/09/09 12:28:38;;;;;;;4.85;4.55;;;;;;;;;;4953104;29;20306;-64
2023/09/09 12:31:05;;;;;;;5.32;4.93;;;;;;;;;;4952574;28;20207;-65
2023/09/09 12:33:39;;;;;;;4.82;4.50;;;;;;;;;;4968315;28;20377;-63
2023/09/09 12:36:06;;;;;;;5.00;4.70;;;;;;;;;;4953189;28;20712;-67
2023/09/09 12:38:38;;;;;;;5.45;4.95;;;;;;;;;;4968917;28;20709;-67
2023/09/09 12:41:06;;;;;;;6.82;4.85;;;;;;;;;;4971968;28;20266;-70
2023/09/09 12:43:34;;;;;;;4.85;4.45;;;;;;;;;;4956844;28;20214;-70
2023/09/09 12:46:05;;;;;;;4.70;4.45;;;;;;;;;;4952864;28;20206;-69
2023/09/09 12:48:32;;;;;;;5.53;5.03;;;;;;;;;;4963281;28;20230;-69
2023/09/09 12:51:00;;;;;;;5.22;4.93;;;;;;;;;;4970170;28;20273;-65
2023/09/09 12:53:27;;;;;;;6.00;5.50;;;;;;;;;;4955251;28;20253;-68
2023/09/09 12:55:54;;;;;;;4.72;4.43;;;;;;;;;;4951699;29;20211;-67
2023/09/09 12:58:21;;;;;;;6.07;5.20;;;;;;;;;;4950821;29;20207;-67
2023/09/09 13:00:48;;;;;;;4.93;4.53;;;;;;;;;;4951243;28;20217;-67
2023/09/09 13:03:16;;;;;;;5.10;4.70;;;;;;;;;;4957355;28;20204;-72
2023/09/09 13:05:43;;;;;;;8.82;5.00;;;;;;;;;;4951675;29;20218;-74
2023/09/09 13:08:10;;;;;;;5.03;4.63;;;;;;;;;;4951006;29;20663;-67
2023/09/09 13:10:37;;;;;;;4.70;4.40;;;;;;;;;;4951164;28;20207;-67
2023/09/09 13:13:05;;;;;;;5.03;4.68;;;;;;;;;;4953130;28;20693;-66
2023/09/09 13:15:32;;;;;;;5.47;4.95;;;;;;;;;;4951420;28;20223;-68
2023/09/09 13:17:59;;;;;;;7.07;5.00;;;;;;;;;;4950442;28;20211;-69
2023/09/09 13:20:28;;;;;;;4.93;4.63;;;;;;;;;;4950648;29;20266;-67
2023/09/09 13:22:55;;;;;;;6.82;5.28;;;;;;;;;;4954148;28;20212;-67
2023/09/09 13:25:22;;;;;;;5.30;4.90;;;;;;;;;;4951835;28;20218;-66
2023/09/09 13:27:49;;;;;;;5.60;4.85;;;;;;;;;;4950220;28;20218;-66
2023/09/09 13:30:16;;;;;;;5.50;4.38;;;;;;;;;;4957685;28;20666;-67
2023/09/09 13:32:43;;;;;;;6.72;4.95;;;;;;;;;;4951140;28;20234;-65
2023/09/09 13:35:10;;;;;;;4.68;4.47;;;;;;;;;;4954648;28;20207;-68
2023/09/09 13:37:39;;;;;;;5.13;4.70;;;;;;;;;;4950366;28;20222;-66
2023/09/09 13:40:07;;;;;;;5.32;4.88;;;;;;;;;;4954008;28;20233;-68
2023/09/09 13:42:34;;;;;;;4.90;4.70;;;;;;;;;;4950738;28;20214;-67
2023/09/09 13:45:01;;;;;;;5.72;4.95;;;;;;;;;;4956437;28;20218;-67
2023/09/09 13:47:28;;;;;;;5.60;5.00;;;;;;;;;;4953931;28;20311;-67
2023/09/09 13:49:55;;;;;;;5.93;5.13;;;;;;;;;;4954044;28;20258;-67
2023/09/09 13:52:22;;;;;;;5.15;4.85;;;;;;;;;;4952130;28;20211;-68
2023/09/09 13:54:50;;;;;;;4.88;4.60;;;;;;;;;;4949869;28;20218;-67
2023/09/09 13:57:17;;;;;;;4.70;4.30;;;;;;;;;;4952498;28;20603;-67
2023/09/09 13:59:44;;;;;;;6.70;4.63;;;;;;;;;;4960056;28;20206;-66
2023/09/09 14:02:11;;;;;;;5.40;4.95;;;;;;;;;;4949654;28;20221;-65
2023/09/09 14:04:38;;;;;;;5.05;4.65;;;;;;;;;;4948542;29;20211;-64
2023/09/09 14:07:05;;;;;;;5.32;5.10;;;;;;;;;;4950305;28;20215;-63
2023/09/09 14:09:32;;;;;;;5.38;4.75;;;;;;;;;;4950648;29;20231;-65
2023/09/09 14:12:01;;;;;;;4.57;4.40;;;;;;;;;;4951732;28;20211;-67
2023/09/09 14:14:28;;;;;;;5.28;4.78;;;;;;;;;;4950930;29;20574;-67
2023/09/09 14:16:56;;;;;;;5.43;4.80;;;;;;;;;;4951750;28;20214;-66
2023/09/09 14:19:23;;;;;;;5.18;4.50;;;;;;;;;;4967401;28;20217;-67
2023/09/09 14:21:50;;;;;;;5.30;4.80;;;;;;;;;;4951918;28;20210;-65
2023/09/09 14:24:17;;;;;;;5.07;4.70;;;;;;;;;;4950428;29;20218;-67
2023/09/09 14:26:44;;;;;;;4.53;4.32;;;;;;;;;;4952909;28;20210;-68
2023/09/09 14:29:13;;;;;;;5.13;4.82;;;;;;;;;;4954700;28;20663;-67
2023/09/09 14:31:40;;;;;;;4.68;4.47;;;;;;;;;;4954505;28;20203;-67
2023/09/09 14:34:08;;;;;;;5.35;4.85;;;;;;;;;;4950339;28;20214;-69
2023/09/09 14:36:35;;;;;;;5.00;4.57;;;;;;;;;;4941288;29;20397;-68
2023/09/09 14:39:03;;;;;;;6.32;4.60;;;;;;;;;;4953444;28;20231;-68
2023/09/09 14:41:30;;;;;;;5.32;4.93;;;;;;;;;;4955862;28;20745;-66
2023/09/09 14:43:57;;;;;;;7.18;6.65;;;;;;;;;;4957158;28;20206;-66
2023/09/09 14:46:27;;;;;;;5.40;5.00;;;;;;;;;;4951980;28;20215;-64